createdAt,value
2018-12-21T00:08:32.314Z,0.40
2018-12-21T00:18:35.259Z,0.40
2018-12-21T00:28:37.889Z,0.40
2018-12-21T00:38:46.310Z,0.50
2018-12-21T00:48:49.708Z,0.50
2018-12-21T00:58:52.316Z,0.60
2018-12-21T01:08:54.929Z,0.70
2018-12-21T01:18:57.663Z,0.70
2018-12-21T01:29:00.276Z,0.70
2018-12-21T01:39:03.205Z,0.70
2018-12-21T01:49:06.108Z,0.80
2018-12-21T01:59:08.722Z,0.80
2018-12-21T02:09:11.347Z,0.80
2018-12-21T02:19:14.159Z,0.90
2018-12-21T02:29:16.780Z,0.90
2018-12-21T02:39:19.405Z,0.90
2018-12-21T02:49:22.045Z,0.90
2018-12-21T02:59:24.742Z,0.90
2018-12-21T03:09:27.333Z,1.00
2018-12-21T03:19:29.976Z,1.00
2018-12-21T03:29:32.590Z,1.00
2018-12-21T03:39:35.204Z,1.10
2018-12-21T03:49:37.820Z,1.10
2018-12-21T03:59:40.426Z,1.20
2018-12-21T04:09:43.040Z,1.20
2018-12-21T04:19:45.859Z,1.20
2018-12-21T04:29:48.470Z,1.20
2018-12-21T04:39:51.086Z,1.20
2018-12-21T04:49:53.686Z,1.20
2018-12-21T04:59:56.313Z,1.30
2018-12-21T05:09:58.906Z,1.30
2018-12-21T05:20:01.543Z,1.40
2018-12-21T05:30:06.430Z,1.30
2018-12-21T05:40:09.028Z,1.30
2018-12-21T05:50:11.649Z,1.40
2018-12-21T06:00:14.302Z,1.40
2018-12-21T06:10:16.910Z,1.40
2018-12-21T06:20:19.722Z,1.50
2018-12-21T06:30:22.326Z,1.50
2018-12-21T06:40:24.942Z,1.50
2018-12-21T06:50:27.550Z,1.60
2018-12-21T07:00:30.173Z,1.60
2018-12-21T07:10:32.778Z,1.70
2018-12-21T07:20:35.389Z,1.80
2018-12-21T07:30:38.022Z,1.80
2018-12-21T07:40:40.636Z,1.90
2018-12-21T07:50:43.530Z,1.90
2018-12-21T08:00:46.142Z,2.00
2018-12-21T08:10:49.656Z,2.10
2018-12-21T08:20:52.494Z,2.20
2018-12-21T08:30:55.101Z,2.30
2018-12-21T08:40:57.725Z,2.50
2018-12-21T08:51:00.349Z,2.60
2018-12-21T09:01:03.234Z,2.60
2018-12-21T09:11:05.838Z,2.70
2018-12-21T09:21:08.470Z,2.80
2018-12-21T09:31:11.361Z,2.90
2018-12-21T09:41:13.984Z,3.00
2018-12-21T09:51:16.584Z,3.10
2018-12-21T10:01:19.204Z,3.30
2018-12-21T10:11:21.813Z,3.40
2018-12-21T10:21:24.439Z,3.70
2018-12-21T10:31:27.327Z,3.90
2018-12-21T10:41:29.946Z,3.90
2018-12-21T10:51:32.549Z,3.90
2018-12-21T11:01:35.151Z,4.00
2018-12-21T11:11:38.054Z,4.00
2018-12-21T11:21:40.722Z,4.00
2018-12-21T11:31:43.341Z,3.90
2018-12-21T11:41:45.951Z,3.90
2018-12-21T11:51:48.558Z,4.00
2018-12-21T12:01:51.301Z,4.00
2018-12-21T12:11:53.919Z,3.90
2018-12-21T12:21:56.540Z,3.70
2018-12-21T12:31:59.158Z,3.60
2018-12-21T12:42:03.650Z,3.60
2018-12-21T12:52:06.431Z,3.50
2018-12-21T13:02:09.333Z,3.60
2018-12-21T13:12:11.940Z,3.60
2018-12-21T13:22:14.538Z,3.60
2018-12-21T13:32:17.524Z,3.60
2018-12-21T13:42:20.122Z,3.60
2018-12-21T13:52:23.098Z,3.60
2018-12-21T14:02:25.910Z,3.50
2018-12-21T14:12:28.852Z,3.40
2018-12-21T14:22:31.546Z,3.30
2018-12-21T14:32:34.170Z,3.20
2018-12-21T14:42:37.264Z,3.10
2018-12-21T14:52:39.896Z,3.10
2018-12-21T15:02:42.622Z,3.00
2018-12-21T15:12:45.240Z,2.90
2018-12-21T15:22:47.957Z,2.70
2018-12-21T15:32:50.584Z,2.60
2018-12-21T15:42:53.531Z,2.60
2018-12-21T15:52:56.131Z,2.70
2018-12-21T16:02:58.747Z,2.70
2018-12-21T16:13:01.448Z,2.60
2018-12-21T16:23:04.113Z,2.60
2018-12-21T16:33:06.772Z,2.40
2018-12-21T16:43:09.430Z,2.40
2018-12-21T16:53:12.050Z,2.30
2018-12-21T17:03:15.673Z,2.30
2018-12-21T17:13:18.638Z,2.30
2018-12-21T17:23:21.667Z,2.30
2018-12-21T17:33:24.608Z,2.30
2018-12-21T17:43:27.237Z,2.30
2018-12-21T17:53:29.863Z,2.30
2018-12-21T18:03:32.646Z,2.30
2018-12-21T18:13:35.256Z,2.30
2018-12-21T18:23:38.472Z,2.20
2018-12-21T18:33:42.948Z,2.20
2018-12-21T18:43:45.561Z,2.10
2018-12-21T18:53:48.158Z,2.10
2018-12-21T19:03:50.786Z,2.10
2018-12-21T19:13:53.408Z,2.10
2018-12-21T19:23:56.498Z,2.10
2018-12-21T19:33:59.110Z,2.10
2018-12-21T19:44:01.757Z,2.10
2018-12-21T19:54:04.365Z,2.10
2018-12-21T20:04:06.985Z,2.10
2018-12-21T20:14:09.638Z,2.10
2018-12-21T20:24:12.381Z,2.00
2018-12-21T20:34:15.005Z,2.00
2018-12-21T20:44:17.606Z,2.00
2018-12-21T20:54:20.259Z,2.10
2018-12-21T21:04:22.863Z,2.10
2018-12-21T21:14:25.478Z,2.10
2018-12-21T21:24:28.216Z,2.10
2018-12-21T21:34:30.840Z,2.10
2018-12-21T21:44:33.464Z,2.10
2018-12-21T21:54:36.073Z,2.10
2018-12-21T22:04:38.680Z,2.10
2018-12-21T22:14:41.298Z,2.00
2018-12-21T22:24:43.962Z,2.10
2018-12-21T22:34:46.561Z,2.10
2018-12-21T22:44:49.169Z,2.10
2018-12-21T22:54:51.775Z,2.10
2018-12-21T23:04:54.392Z,2.10
2018-12-21T23:14:56.994Z,2.10
2018-12-21T23:24:59.589Z,2.10
2018-12-21T23:35:02.235Z,2.10
2018-12-21T23:45:05.630Z,2.10
2018-12-21T23:55:08.517Z,2.10
